Terminal Aerodrome Forecast
Issued by NWS

Current Version | Previous Version | Graphics & Text | Print | Product List | Glossary On
Versions: 1 2 3 4 5 6 7 8 9 10 11 12 13 14 15
000
FTUS41 KILN 100702 AAA
TAFLUK
TAF AMD
KLUK 100702Z 1007/1106 27015KT P6SM BKN025
     FM100900 25007KT P6SM FEW035 SCT150
     FM101500 23012G20KT P6SM BKN100
     FM102200 23008KT P6SM SCT040=

USA.gov is the U.S. government's official web portal to all federal, state and local government web resources and services.